createdAt,value
2016-08-18T00:00:05.383Z,0
2016-08-18T00:01:04.734Z,0
2016-08-18T00:02:05.437Z,0
2016-08-18T00:03:04.761Z,0
2016-08-18T00:04:06.236Z,0
2016-08-18T00:05:05.543Z,0
2016-08-18T00:06:04.828Z,0
2016-08-18T00:07:06.424Z,0
2016-08-18T00:08:04.911Z,0
2016-08-18T00:09:20.582Z,0
2016-08-18T00:10:06.389Z,0
2016-08-18T00:11:07.129Z,0
2016-08-18T00:12:05.725Z,0
2016-08-18T00:13:05.794Z,0
2016-08-18T00:14:05.136Z,0
2016-08-18T00:15:05.797Z,0
2016-08-18T00:16:05.867Z,0
2016-08-18T00:17:05.204Z,0
2016-08-18T00:18:05.183Z,0
2016-08-18T00:19:05.922Z,0
2016-08-18T00:20:04.539Z,0
2016-08-18T00:21:05.272Z,0
2016-08-18T00:22:05.285Z,0
2016-08-18T00:23:06.720Z,0
2016-08-18T00:24:06.034Z,0
2016-08-18T00:25:05.428Z,0
2016-08-18T00:26:06.134Z,0
2016-08-18T00:27:06.137Z,0
2016-08-18T00:28:06.203Z,0
2016-08-18T00:29:05.522Z,0
2016-08-18T00:30:05.497Z,0
2016-08-18T00:31:06.287Z,0
2016-08-18T00:32:07.007Z,0
2016-08-18T00:33:06.299Z,0
2016-08-18T00:34:05.590Z,0
2016-08-18T00:35:07.030Z,0
2016-08-18T00:36:06.420Z,0
2016-08-18T00:37:05.690Z,0
2016-08-18T00:38:07.114Z,0
2016-08-18T00:39:07.850Z,0
2016-08-18T00:40:05.018Z,0
2016-08-18T00:41:07.182Z,0
2016-08-18T00:42:05.087Z,0
2016-08-18T00:43:06.533Z,0
2016-08-18T00:44:06.550Z,0
2016-08-18T00:45:05.926Z,0
2016-08-18T00:46:05.886Z,0
2016-08-18T00:47:07.371Z,0
2016-08-18T00:48:07.377Z,0
2016-08-18T00:49:07.393Z,0
2016-08-18T00:50:06.018Z,0
2016-08-18T00:51:06.040Z,0
2016-08-18T00:52:07.478Z,0
2016-08-18T00:53:06.787Z,0
2016-08-18T00:54:40.300Z,0
2016-08-18T00:55:06.111Z,0
2016-08-18T00:56:06.856Z,0
2016-08-18T00:57:08.299Z,0
2016-08-18T00:58:06.201Z,0
2016-08-18T00:59:06.942Z,0
2016-08-18T01:00:05.548Z,0
2016-08-18T01:01:06.283Z,0
2016-08-18T01:02:07.746Z,0
2016-08-18T01:03:06.329Z,0
2016-08-18T01:04:06.361Z,0
2016-08-18T01:05:06.402Z,0
2016-08-18T01:06:08.539Z,0
2016-08-18T01:07:06.469Z,0
2016-08-18T01:08:06.479Z,0
2016-08-18T01:09:05.794Z,0
2016-08-18T01:10:07.242Z,0
2016-08-18T01:11:06.556Z,0
2016-08-18T01:12:06.575Z,0
2016-08-18T01:13:06.612Z,0
2016-08-18T01:14:06.672Z,0
2016-08-18T01:15:06.689Z,0
2016-08-18T01:16:08.113Z,0
2016-08-18T01:17:06.007Z,0
2016-08-18T01:18:07.459Z,0
2016-08-18T01:19:06.065Z,0
2016-08-18T01:20:07.522Z,0
2016-08-18T01:21:06.816Z,0
2016-08-18T01:22:07.596Z,0
2016-08-18T01:23:07.583Z,0
2016-08-18T01:24:06.200Z,0
2016-08-18T01:25:07.637Z,0
2016-08-18T01:26:07.666Z,0
2016-08-18T01:27:07.692Z,0
2016-08-18T01:28:07.720Z,0
2016-08-18T01:29:07.758Z,0
2016-08-18T01:30:08.481Z,0
2016-08-18T01:31:07.807Z,0
2016-08-18T01:32:07.821Z,0
2016-08-18T01:33:08.572Z,0
2016-08-18T01:34:08.592Z,0
2016-08-18T01:35:07.202Z,0
2016-08-18T01:36:07.941Z,0
2016-08-18T01:37:07.973Z,0
2016-08-18T01:38:08.699Z,0
2016-08-18T01:39:06.602Z,0
2016-08-18T01:40:07.332Z,0
2016-08-18T01:41:07.361Z,0
2016-08-18T01:42:08.806Z,0
2016-08-18T01:43:08.144Z,0
2016-08-18T01:44:08.885Z,0
2016-08-18T01:45:08.902Z,0
2016-08-18T01:46:08.204Z,0
2016-08-18T01:47:07.553Z,0
2016-08-18T01:48:08.258Z,0
2016-08-18T01:49:07.608Z,0
2016-08-18T01:50:07.660Z,0
2016-08-18T01:51:09.110Z,0
2016-08-18T01:52:07.772Z,0
2016-08-18T01:53:08.668Z,0
2016-08-18T01:54:08.489Z,0
2016-08-18T01:55:08.452Z,0
2016-08-18T01:56:07.814Z,0
2016-08-18T01:57:09.225Z,0
2016-08-18T01:58:07.823Z,0
2016-08-18T01:59:08.580Z,0
2016-08-18T02:00:07.901Z,0
2016-08-18T02:01:07.188Z,0
2016-08-18T02:02:08.657Z,0
2016-08-18T02:03:07.960Z,0
2016-08-18T02:04:07.977Z,0
2016-08-18T02:05:10.164Z,0
2016-08-18T02:06:08.751Z,0
2016-08-18T02:07:08.776Z,0
2016-08-18T02:08:08.080Z,0
2016-08-18T02:09:08.871Z,0
2016-08-18T02:10:40.957Z,0
2016-08-18T02:11:08.207Z,0
2016-08-18T02:12:08.891Z,0
2016-08-18T02:13:08.932Z,0
2016-08-18T02:14:08.959Z,0
2016-08-18T02:15:08.290Z,0
2016-08-18T02:16:08.315Z,0
2016-08-18T02:17:08.329Z,0
2016-08-18T02:18:09.089Z,0
2016-08-18T02:19:09.092Z,0
2016-08-18T02:20:08.419Z,0
2016-08-18T02:21:09.154Z,0
2016-08-18T02:22:08.460Z,0
2016-08-18T02:23:08.512Z,0
2016-08-18T02:24:09.950Z,0
2016-08-18T02:25:08.537Z,0
2016-08-18T02:26:09.275Z,0
2016-08-18T02:27:10.007Z,0
2016-08-18T02:28:09.334Z,0
2016-08-18T02:29:09.350Z,0
2016-08-18T02:30:08.675Z,0
2016-08-18T02:31:10.873Z,0
2016-08-18T02:32:09.436Z,0
2016-08-18T02:33:08.749Z,0
2016-08-18T02:34:08.788Z,0
2016-08-18T02:35:10.224Z,0
2016-08-18T02:36:09.562Z,0
2016-08-18T02:37:10.304Z,0
2016-08-18T02:38:08.281Z,0
2016-08-18T02:39:10.347Z,0
2016-08-18T02:40:08.225Z,0
2016-08-18T02:41:09.719Z,0
2016-08-18T02:42:09.699Z,0
2016-08-18T02:43:08.335Z,0
2016-08-18T02:44:10.476Z,0
2016-08-18T02:45:08.379Z,0
2016-08-18T02:46:10.528Z,0
2016-08-18T02:47:09.934Z,0
2016-08-18T02:48:10.670Z,0
2016-08-18T02:49:10.160Z,0
2016-08-18T02:50:09.234Z,0
2016-08-18T02:51:08.523Z,0
2016-08-18T02:52:09.251Z,0
2016-08-18T02:53:09.281Z,0
2016-08-18T02:54:10.015Z,0
2016-08-18T02:55:09.333Z,0
2016-08-18T02:56:10.066Z,0
2016-08-18T02:57:10.113Z,0
2016-08-18T02:58:10.135Z,0
2016-08-18T02:59:08.735Z,0
2016-08-18T03:00:09.465Z,0
2016-08-18T03:01:10.925Z,0
2016-08-18T03:02:10.224Z,0
2016-08-18T03:03:10.258Z,0
2016-08-18T03:04:08.854Z,0
2016-08-18T03:05:09.623Z,0
2016-08-18T03:06:08.947Z,0
2016-08-18T03:07:10.397Z,0
2016-08-18T03:08:09.674Z,0
2016-08-18T03:09:09.021Z,0
2016-08-18T03:10:10.439Z,0
2016-08-18T03:11:10.476Z,0
2016-08-18T03:12:09.790Z,0
2016-08-18T03:13:09.826Z,0
2016-08-18T03:14:10.566Z,0
2016-08-18T03:15:10.584Z,0
2016-08-18T03:16:11.324Z,0
2016-08-18T03:17:09.925Z,0
2016-08-18T03:18:09.955Z,0
2016-08-18T03:19:09.968Z,0
2016-08-18T03:20:10.721Z,0
2016-08-18T03:21:10.791Z,0
2016-08-18T03:22:12.178Z,0
2016-08-18T03:23:10.787Z,0
2016-08-18T03:24:12.256Z,0
2016-08-18T03:25:10.154Z,0
2016-08-18T03:26:10.915Z,0
2016-08-18T03:27:09.492Z,0
2016-08-18T03:28:11.660Z,0
2016-08-18T03:29:11.678Z,0
2016-08-18T03:30:12.420Z,0
2016-08-18T03:31:09.583Z,0
2016-08-18T03:32:11.736Z,0
2016-08-18T03:33:14.093Z,0
2016-08-18T03:34:11.072Z,0
2016-08-18T03:35:09.685Z,0
2016-08-18T03:36:11.131Z,0
2016-08-18T03:37:10.448Z,0
2016-08-18T03:38:10.469Z,0
2016-08-18T03:39:10.504Z,0
2016-08-18T03:40:10.519Z,0
2016-08-18T03:41:11.970Z,0
2016-08-18T03:42:11.282Z,0
2016-08-18T03:43:12.730Z,0
2016-08-18T03:44:11.349Z,0
2016-08-18T03:45:10.666Z,0
2016-08-18T03:46:11.392Z,0
2016-08-18T03:47:10.707Z,0
2016-08-18T03:48:11.438Z,0
2016-08-18T03:49:11.468Z,0
2016-08-18T03:50:10.777Z,0
2016-08-18T03:51:11.519Z,0
2016-08-18T03:52:12.259Z,0
2016-08-18T03:53:11.572Z,0
2016-08-18T03:54:12.307Z,0
2016-08-18T03:55:12.332Z,0
2016-08-18T03:56:11.652Z,0
2016-08-18T03:57:11.674Z,0
2016-08-18T03:58:11.704Z,0
2016-08-18T03:59:11.039Z,0
2016-08-18T04:00:11.050Z,0
2016-08-18T04:01:12.499Z,0
2016-08-18T04:02:11.102Z,0
2016-08-18T04:03:11.834Z,0
2016-08-18T04:04:11.865Z,0
2016-08-18T04:05:11.888Z,0
2016-08-18T04:06:13.333Z,0
2016-08-18T04:07:10.515Z,0
2016-08-18T04:08:12.692Z,0
2016-08-18T04:09:13.413Z,0
2016-08-18T04:10:12.014Z,0
2016-08-18T04:11:12.036Z,0
2016-08-18T04:12:12.063Z,0
2016-08-18T04:13:10.697Z,0
2016-08-18T04:14:12.126Z,0
2016-08-18T04:15:10.728Z,0
2016-08-18T04:16:11.482Z,0
2016-08-18T04:17:12.209Z,0
2016-08-18T04:18:13.645Z,0
2016-08-18T04:19:12.260Z,0
2016-08-18T04:20:12.278Z,0
2016-08-18T04:21:13.016Z,0
2016-08-18T04:22:11.620Z,0
2016-08-18T04:23:12.357Z,0
2016-08-18T04:24:12.406Z,0
2016-08-18T04:25:10.994Z,0
2016-08-18T04:26:11.736Z,0
2016-08-18T04:27:11.767Z,0
2016-08-18T04:28:12.491Z,0
2016-08-18T04:29:11.808Z,0
2016-08-18T04:30:11.828Z,0
2016-08-18T04:31:12.573Z,0
2016-08-18T04:32:12.620Z,0
2016-08-18T04:33:14.040Z,0
2016-08-18T04:34:11.224Z,0
2016-08-18T04:35:13.387Z,0
2016-08-18T04:36:12.696Z,0
2016-08-18T04:37:12.810Z,0
2016-08-18T04:38:12.045Z,0
2016-08-18T04:39:11.371Z,0
2016-08-18T04:40:12.813Z,0
2016-08-18T04:41:12.857Z,0
2016-08-18T04:42:12.168Z,0
2016-08-18T04:43:13.588Z,0
2016-08-18T04:44:12.197Z,0
2016-08-18T04:45:12.221Z,0
2016-08-18T04:46:12.967Z,0
2016-08-18T04:47:13.692Z,0
2016-08-18T04:48:12.308Z,0
2016-08-18T04:49:13.044Z,0
2016-08-18T04:50:12.357Z,0
2016-08-18T04:51:14.514Z,0
2016-08-18T04:52:12.418Z,0
2016-08-18T04:53:13.144Z,0
2016-08-18T04:54:13.176Z,0
2016-08-18T04:55:12.489Z,0
2016-08-18T04:56:12.533Z,0
2016-08-18T04:57:13.958Z,0
2016-08-18T04:58:12.601Z,0
2016-08-18T04:59:14.017Z,0
2016-08-18T05:00:11.929Z,0
2016-08-18T05:01:11.945Z,0
2016-08-18T05:02:13.384Z,0
2016-08-18T05:03:13.408Z,0
2016-08-18T05:04:12.727Z,0
2016-08-18T05:05:14.987Z,0
2016-08-18T05:06:14.231Z,0
2016-08-18T05:07:13.640Z,0
2016-08-18T05:08:14.425Z,0
2016-08-18T05:09:13.693Z,0
2016-08-18T05:10:13.783Z,0
2016-08-18T05:11:13.068Z,0
2016-08-18T05:12:13.073Z,0
2016-08-18T05:13:14.565Z,0
2016-08-18T05:14:14.420Z,0
2016-08-18T05:15:14.619Z,0
2016-08-18T05:16:13.136Z,0
2016-08-18T05:17:13.185Z,0
2016-08-18T05:18:13.951Z,0
2016-08-18T05:19:13.250Z,0
2016-08-18T05:20:13.968Z,0
2016-08-18T05:21:13.339Z,0
2016-08-18T05:22:13.368Z,0
2016-08-18T05:23:14.821Z,0
2016-08-18T05:24:13.356Z,0
2016-08-18T05:25:12.648Z,0
2016-08-18T05:26:14.172Z,0
2016-08-18T05:27:14.868Z,0
2016-08-18T05:28:14.212Z,0
2016-08-18T05:29:14.146Z,0
2016-08-18T05:30:13.436Z,0
2016-08-18T05:31:12.779Z,0
2016-08-18T05:32:14.218Z,0
2016-08-18T05:33:14.983Z,0
2016-08-18T05:34:15.666Z,0
2016-08-18T05:35:14.969Z,0
2016-08-18T05:36:14.301Z,0
2016-08-18T05:37:13.606Z,0
2016-08-18T05:38:13.632Z,0
2016-08-18T05:39:15.085Z,0
2016-08-18T05:40:15.129Z,0
2016-08-18T05:41:15.833Z,0
2016-08-18T05:42:13.730Z,0
2016-08-18T05:43:13.050Z,0
2016-08-18T05:44:14.542Z,0
2016-08-18T05:45:15.249Z,0
2016-08-18T05:46:14.566Z,0
2016-08-18T05:47:14.584Z,0
2016-08-18T05:48:15.329Z,0
2016-08-18T05:49:13.925Z,0
2016-08-18T05:50:14.654Z,0
2016-08-18T05:51:15.391Z,0
2016-08-18T05:52:15.018Z,0
2016-08-18T05:53:14.075Z,0
2016-08-18T05:54:19.763Z,0
2016-08-18T05:55:14.085Z,0
2016-08-18T05:56:15.707Z,0
2016-08-18T05:57:15.548Z,0
2016-08-18T05:58:14.867Z,0
2016-08-18T05:59:15.671Z,0
2016-08-18T06:00:15.846Z,0
2016-08-18T06:01:15.664Z,0
2016-08-18T06:02:14.278Z,0
2016-08-18T06:03:14.293Z,0
2016-08-18T06:04:15.024Z,0
2016-08-18T06:05:13.658Z,0
2016-08-18T06:06:15.787Z,0
2016-08-18T06:07:15.187Z,0
2016-08-18T06:08:15.159Z,0
2016-08-18T06:09:15.884Z,0
2016-08-18T06:10:15.143Z,0
2016-08-18T06:11:15.273Z,0
2016-08-18T06:12:14.524Z,0
2016-08-18T06:13:15.975Z,0
2016-08-18T06:14:15.300Z,0
2016-08-18T06:15:14.609Z,0
2016-08-18T06:16:15.357Z,0
2016-08-18T06:17:14.690Z,0
2016-08-18T06:18:16.178Z,0
2016-08-18T06:19:16.164Z,0
2016-08-18T06:20:14.838Z,0
2016-08-18T06:21:15.478Z,0
2016-08-18T06:22:15.534Z,0
2016-08-18T06:23:14.814Z,0
2016-08-18T06:24:15.628Z,0
2016-08-18T06:25:14.212Z,0
2016-08-18T06:26:16.312Z,0
2016-08-18T06:27:16.339Z,0
2016-08-18T06:28:14.951Z,0
2016-08-18T06:29:14.395Z,0
2016-08-18T06:30:14.296Z,0
2016-08-18T06:31:15.750Z,0
2016-08-18T06:32:15.057Z,0
2016-08-18T06:33:16.500Z,0
2016-08-18T06:34:15.825Z,0
2016-08-18T06:35:15.847Z,0
2016-08-18T06:36:15.160Z,0
2016-08-18T06:37:15.906Z,0
2016-08-18T06:38:15.916Z,0
2016-08-18T06:39:15.252Z,0
2016-08-18T06:40:17.013Z,0
2016-08-18T06:41:15.305Z,0
2016-08-18T06:42:16.029Z,0
2016-08-18T06:43:15.351Z,0
2016-08-18T06:44:15.372Z,0
2016-08-18T06:45:16.146Z,0
2016-08-18T06:46:15.441Z,0
2016-08-18T06:47:14.740Z,0
2016-08-18T06:48:16.921Z,0
2016-08-18T06:49:16.221Z,0
2016-08-18T06:50:14.860Z,0
2016-08-18T06:51:16.271Z,0
2016-08-18T06:52:17.013Z,0
2016-08-18T06:53:17.738Z,0
2016-08-18T06:54:17.091Z,0
2016-08-18T06:55:17.364Z,0
2016-08-18T06:56:16.396Z,0
2016-08-18T06:57:15.724Z,0
2016-08-18T06:58:15.734Z,0
2016-08-18T06:59:16.483Z,0
2016-08-18T07:00:16.004Z,0
2016-08-18T07:01:16.534Z,0
2016-08-18T07:02:15.135Z,0
2016-08-18T07:03:15.166Z,0
2016-08-18T07:04:16.641Z,0
2016-08-18T07:05:16.645Z,0
2016-08-18T07:06:16.695Z,0
2016-08-18T07:07:16.688Z,0
2016-08-18T07:08:16.008Z,0
2016-08-18T07:09:16.742Z,0
2016-08-18T07:10:16.886Z,0
2016-08-18T07:11:17.512Z,0
2016-08-18T07:12:15.402Z,0
2016-08-18T07:13:17.566Z,0
2016-08-18T07:14:16.871Z,0
2016-08-18T07:15:18.990Z,0
2016-08-18T07:16:15.506Z,0
2016-08-18T07:17:15.745Z,0
2016-08-18T07:18:16.271Z,0
2016-08-18T07:19:16.306Z,0
2016-08-18T07:20:17.753Z,0
2016-08-18T07:21:17.061Z,0
2016-08-18T07:22:17.103Z,0
2016-08-18T07:23:17.114Z,0
2016-08-18T07:24:17.138Z,0
2016-08-18T07:25:17.242Z,0
2016-08-18T07:26:17.194Z,0
2016-08-18T07:27:16.530Z,0
2016-08-18T07:28:16.551Z,0
2016-08-18T07:29:17.270Z,0
2016-08-18T07:30:16.609Z,0
2016-08-18T07:31:16.615Z,0
2016-08-18T07:32:16.649Z,0
2016-08-18T07:33:16.680Z,0
2016-08-18T07:34:16.698Z,0
2016-08-18T07:35:16.212Z,0
2016-08-18T07:36:21.165Z,0
2016-08-18T07:37:16.069Z,0
2016-08-18T07:38:17.521Z,0
2016-08-18T07:39:17.558Z,5
2016-08-18T07:40:16.148Z,5
2016-08-18T07:41:18.579Z,5
2016-08-18T07:42:16.935Z,0
2016-08-18T07:43:17.669Z,0
2016-08-18T07:44:18.384Z,0
2016-08-18T07:45:18.539Z,0
2016-08-18T07:46:17.019Z,0
2016-08-18T07:47:17.759Z,0
2016-08-18T07:48:17.782Z,0
2016-08-18T07:49:17.808Z,0
2016-08-18T07:50:17.229Z,0
2016-08-18T07:51:17.222Z,0
2016-08-18T07:52:18.611Z,0
2016-08-18T07:53:17.221Z,0
2016-08-18T07:54:18.650Z,5
2016-08-18T07:55:18.793Z,15
2016-08-18T07:56:17.302Z,20
2016-08-18T07:57:18.035Z,15
2016-08-18T07:58:17.351Z,10
2016-08-18T07:59:18.106Z,10
2016-08-18T08:00:19.622Z,10
2016-08-18T08:01:18.131Z,15
2016-08-18T08:02:18.154Z,5
2016-08-18T08:03:16.774Z,5
2016-08-18T08:04:18.223Z,5
2016-08-18T08:05:19.963Z,5
2016-08-18T08:06:18.279Z,10
2016-08-18T08:07:19.033Z,20
2016-08-18T08:08:16.904Z,10
2016-08-18T08:09:18.397Z,5
2016-08-18T08:10:18.769Z,5
2016-08-18T08:11:18.400Z,5
2016-08-18T08:12:18.431Z,10
2016-08-18T08:13:19.181Z,20
2016-08-18T08:14:18.495Z,15
2016-08-18T08:15:17.834Z,5
2016-08-18T08:16:19.247Z,15
2016-08-18T08:17:19.278Z,15
2016-08-18T08:18:17.893Z,15
2016-08-18T08:19:17.909Z,15
2016-08-18T08:20:20.306Z,15
2016-08-18T08:21:17.259Z,15
2016-08-18T08:22:19.413Z,15
2016-08-18T08:23:18.161Z,15
2016-08-18T08:24:19.474Z,15
2016-08-18T08:25:18.098Z,15
2016-08-18T08:26:18.428Z,15
2016-08-18T08:27:19.558Z,15
2016-08-18T08:28:18.928Z,15
2016-08-18T08:29:18.186Z,20
2016-08-18T08:30:21.307Z,20
2016-08-18T08:31:19.853Z,20
2016-08-18T08:32:18.372Z,20
2016-08-18T08:33:19.010Z,20
2016-08-18T08:34:20.105Z,20
2016-08-18T08:35:22.595Z,20
2016-08-18T08:36:18.703Z,10
2016-08-18T08:37:20.326Z,10
2016-08-18T08:38:19.862Z,5
2016-08-18T08:39:19.331Z,20
2016-08-18T08:40:26.589Z,15
2016-08-18T08:41:17.813Z,5
2016-08-18T08:42:19.971Z,10
2016-08-18T08:43:19.302Z,5
2016-08-18T08:44:19.311Z,5
2016-08-18T08:45:20.093Z,5
2016-08-18T08:46:19.372Z,5
2016-08-18T08:47:18.702Z,20
2016-08-18T08:48:19.428Z,20
2016-08-18T08:49:18.921Z,20
2016-08-18T08:50:21.172Z,20
2016-08-18T08:51:18.852Z,15
2016-08-18T08:52:19.543Z,15
2016-08-18T08:53:19.730Z,20
2016-08-18T08:54:20.503Z,20
2016-08-18T08:55:19.464Z,20
2016-08-18T08:56:21.021Z,20
2016-08-18T08:57:19.075Z,20
2016-08-18T08:58:22.763Z,20
2016-08-18T08:59:18.768Z,20
2016-08-18T09:00:21.328Z,20
2016-08-18T09:01:19.159Z,20
2016-08-18T09:02:19.117Z,20
2016-08-18T09:03:20.688Z,20
2016-08-18T09:04:19.175Z,20
2016-08-18T09:05:21.889Z,15
2016-08-18T09:06:19.505Z,15
2016-08-18T09:07:20.716Z,15
2016-08-18T09:08:20.713Z,20
2016-08-18T09:09:20.756Z,20
2016-08-18T09:10:20.069Z,20
2016-08-18T09:11:19.382Z,30
2016-08-18T09:12:20.134Z,110
2016-08-18T09:13:20.862Z,160
2016-08-18T09:14:20.191Z,140
2016-08-18T09:15:20.277Z,10
2016-08-18T09:16:20.236Z,25
2016-08-18T09:17:20.271Z,10
2016-08-18T09:18:19.585Z,5
2016-08-18T09:19:20.323Z,5
2016-08-18T09:20:20.557Z,10
2016-08-18T09:21:19.823Z,5
2016-08-18T09:22:20.421Z,5
2016-08-18T09:23:21.214Z,20
2016-08-18T09:24:20.521Z,5
2016-08-18T09:25:20.768Z,5
2016-08-18T09:26:20.539Z,5
2016-08-18T09:27:21.305Z,5
2016-08-18T09:28:21.334Z,10
2016-08-18T09:29:20.676Z,5
2016-08-18T09:30:21.076Z,15
2016-08-18T09:31:20.079Z,20
2016-08-18T09:32:20.084Z,20
2016-08-18T09:33:20.748Z,20
2016-08-18T09:34:20.807Z,10
2016-08-18T09:35:21.631Z,20
2016-08-18T09:36:21.585Z,10
2016-08-18T09:37:20.883Z,10
2016-08-18T09:38:20.900Z,5
2016-08-18T09:39:20.955Z,5
2016-08-18T09:40:22.345Z,20
2016-08-18T09:41:20.345Z,10
2016-08-18T09:42:21.030Z,20
2016-08-18T09:43:21.897Z,20
2016-08-18T09:44:21.805Z,15
2016-08-18T09:45:22.421Z,5
2016-08-18T09:46:21.181Z,10
2016-08-18T09:47:20.458Z,20
2016-08-18T09:48:20.497Z,10
2016-08-18T09:49:22.657Z,10
2016-08-18T09:50:21.668Z,20
2016-08-18T09:51:20.634Z,10
2016-08-18T09:52:22.063Z,20
2016-08-18T09:53:21.418Z,10
2016-08-18T09:54:21.487Z,10
2016-08-18T09:55:20.830Z,25
2016-08-18T09:56:20.756Z,20
2016-08-18T09:57:21.507Z,10
2016-08-18T09:58:20.811Z,15
2016-08-18T09:59:21.538Z,5
2016-08-18T10:00:22.621Z,20
2016-08-18T10:01:21.660Z,20
2016-08-18T10:02:20.931Z,20
2016-08-18T10:03:21.660Z,20
2016-08-18T10:04:21.006Z,20
2016-08-18T10:05:22.751Z,20
2016-08-18T10:06:21.028Z,10
2016-08-18T10:07:21.853Z,10
2016-08-18T10:08:21.821Z,10
2016-08-18T10:09:21.129Z,20
2016-08-18T10:10:20.483Z,20
2016-08-18T10:11:20.485Z,20
2016-08-18T10:12:21.941Z,20
2016-08-18T10:13:21.949Z,10
2016-08-18T10:14:21.987Z,5
2016-08-18T10:15:21.335Z,5
2016-08-18T10:16:22.049Z,5
2016-08-18T10:17:21.367Z,5
2016-08-18T10:18:21.416Z,5
2016-08-18T10:19:20.709Z,5
2016-08-18T10:20:22.034Z,5
2016-08-18T10:21:21.480Z,5
2016-08-18T10:22:22.934Z,5
2016-08-18T10:23:21.542Z,10
2016-08-18T10:24:22.287Z,15
2016-08-18T10:25:22.068Z,20
2016-08-18T10:26:20.929Z,10
2016-08-18T10:27:23.085Z,5
2016-08-18T10:28:23.125Z,5
2016-08-18T10:29:22.442Z,5
2016-08-18T10:30:21.750Z,5
2016-08-18T10:31:21.788Z,5
2016-08-18T10:32:21.106Z,25
2016-08-18T10:33:23.268Z,15
2016-08-18T10:34:23.322Z,20
2016-08-18T10:35:22.617Z,20
2016-08-18T10:36:22.647Z,20
2016-08-18T10:37:22.063Z,20
2016-08-18T10:38:22.006Z,15
2016-08-18T10:39:22.748Z,10
2016-08-18T10:40:22.080Z,10
2016-08-18T10:41:22.092Z,25
2016-08-18T10:42:22.135Z,10
2016-08-18T10:43:21.442Z,10
2016-08-18T10:44:22.899Z,10
2016-08-18T10:45:22.700Z,5
2016-08-18T10:46:22.239Z,5
2016-08-18T10:47:23.003Z,5
2016-08-18T10:48:23.035Z,5
2016-08-18T10:49:23.076Z,5
2016-08-18T10:50:23.811Z,5
2016-08-18T10:51:23.110Z,5
2016-08-18T10:52:21.718Z,5
2016-08-18T10:53:22.478Z,5
2016-08-18T10:54:23.230Z,5
2016-08-18T10:55:23.344Z,5
2016-08-18T10:57:24.001Z,5
2016-08-18T10:58:23.334Z,5
2016-08-18T10:59:22.641Z,5
2016-08-18T11:00:23.387Z,5
2016-08-18T11:01:22.705Z,5
2016-08-18T11:02:22.737Z,10
2016-08-18T11:03:23.486Z,5
2016-08-18T11:04:22.794Z,15
2016-08-18T11:05:22.987Z,10
2016-08-18T11:06:22.871Z,15
2016-08-18T11:07:25.020Z,10
2016-08-18T11:08:24.338Z,5
2016-08-18T11:09:23.657Z,5
2016-08-18T11:10:23.192Z,5
2016-08-18T11:11:23.005Z,5
2016-08-18T11:12:23.768Z,5
2016-08-18T11:13:22.375Z,10
2016-08-18T11:14:22.412Z,10
2016-08-18T11:15:24.577Z,5
2016-08-18T11:16:22.463Z,5
2016-08-18T11:17:25.321Z,5
2016-08-18T11:18:23.232Z,5
2016-08-18T11:19:24.677Z,5
2016-08-18T11:20:23.993Z,5
2016-08-18T11:21:24.028Z,0
2016-08-18T11:22:24.098Z,0
2016-08-18T11:23:24.805Z,0
2016-08-18T11:24:23.408Z,0
2016-08-18T11:25:22.741Z,0
2016-08-18T11:26:22.765Z,0
2016-08-18T11:27:22.789Z,0
2016-08-18T11:28:24.948Z,0
2016-08-18T11:29:24.983Z,5
2016-08-18T11:30:23.629Z,5
2016-08-18T11:31:25.788Z,5
2016-08-18T11:32:24.365Z,5
2016-08-18T11:33:23.684Z,5
2016-08-18T11:34:23.723Z,5
2016-08-18T11:35:23.034Z,5
2016-08-18T11:36:24.484Z,5
2016-08-18T11:37:24.507Z,5
2016-08-18T11:38:25.313Z,5
2016-08-18T11:39:24.598Z,10
2016-08-18T11:40:25.017Z,10
2016-08-18T11:41:25.354Z,15
2016-08-18T11:42:25.391Z,15
2016-08-18T11:43:23.985Z,20
2016-08-18T11:44:24.038Z,20
2016-08-18T11:45:24.775Z,15
2016-08-18T11:46:23.485Z,20
2016-08-18T11:47:24.099Z,20
2016-08-18T11:48:23.424Z,20
2016-08-18T11:49:24.166Z,20
2016-08-18T11:50:24.226Z,15
2016-08-18T11:51:26.443Z,15
2016-08-18T11:52:24.252Z,15
2016-08-18T11:53:23.575Z,15
2016-08-18T11:54:24.314Z,15
2016-08-18T11:55:25.920Z,15
2016-08-18T11:56:24.391Z,15
2016-08-18T12:12:05.759Z,5
2016-08-18T12:13:03.684Z,5
2016-08-18T12:14:04.364Z,5
2016-08-18T12:15:05.000Z,5
2016-08-18T12:16:05.026Z,5
2016-08-18T12:17:04.362Z,5
2016-08-18T12:18:04.398Z,0
2016-08-18T12:19:05.123Z,0
2016-08-18T12:20:04.444Z,0
2016-08-18T12:21:05.889Z,0
2016-08-18T12:22:05.939Z,0
2016-08-18T12:23:05.951Z,0
2016-08-18T12:24:04.562Z,0
2016-08-18T12:25:06.719Z,5
2016-08-18T12:26:05.332Z,5
2016-08-18T12:27:04.652Z,5
2016-08-18T12:28:05.390Z,5
2016-08-18T12:29:04.718Z,5
2016-08-18T12:30:05.455Z,5
2016-08-18T12:31:04.059Z,5
2016-08-18T12:32:06.248Z,5
2016-08-18T12:33:04.845Z,5
2016-08-18T12:34:05.572Z,5
2016-08-18T12:35:05.598Z,5
2016-08-18T12:36:05.634Z,5
2016-08-18T12:37:06.377Z,5
2016-08-18T12:38:04.267Z,10
2016-08-18T12:39:05.027Z,10
2016-08-18T12:40:05.037Z,10
2016-08-18T12:41:05.062Z,10
2016-08-18T12:42:05.106Z,10
2016-08-18T12:43:05.128Z,10
2016-08-18T12:44:05.157Z,10
2016-08-18T12:45:05.180Z,10
2016-08-18T12:46:05.217Z,10
2016-08-18T12:47:05.962Z,15
2016-08-18T12:48:06.701Z,15
2016-08-18T12:49:05.322Z,15
2016-08-18T12:50:05.343Z,20
2016-08-18T12:51:06.783Z,15
2016-08-18T12:52:06.260Z,15
2016-08-18T12:53:04.762Z,15
2016-08-18T12:54:06.168Z,15
2016-08-18T12:55:06.912Z,15
2016-08-18T12:56:04.795Z,15
2016-08-18T12:57:06.990Z,10
2016-08-18T12:58:06.277Z,15
2016-08-18T12:59:05.610Z,15
2016-08-18T13:00:05.640Z,15
2016-08-18T13:01:05.662Z,15
2016-08-18T13:02:06.408Z,15
2016-08-18T13:03:07.163Z,10
2016-08-18T13:04:06.472Z,15
2016-08-18T13:05:05.789Z,15
2016-08-18T13:06:06.560Z,10
2016-08-18T13:07:05.867Z,15
2016-08-18T13:08:05.169Z,15
2016-08-18T13:09:07.388Z,15
2016-08-18T13:10:05.984Z,10
2016-08-18T13:11:07.396Z,15
2016-08-18T13:12:21.625Z,5
2016-08-18T13:13:06.845Z,5
2016-08-18T13:14:06.289Z,10
2016-08-18T13:15:05.379Z,10
2016-08-18T13:16:06.123Z,5
2016-08-18T13:17:05.449Z,5
2016-08-18T13:18:06.177Z,5
2016-08-18T13:19:05.498Z,5
2016-08-18T13:20:07.699Z,10
2016-08-18T13:21:07.702Z,10
2016-08-18T13:22:07.190Z,5
2016-08-18T13:23:06.337Z,5
2016-08-18T13:24:05.658Z,5
2016-08-18T13:25:07.107Z,10
2016-08-18T13:26:06.430Z,10
2016-08-18T13:27:07.159Z,10
2016-08-18T13:28:06.500Z,10
2016-08-18T13:29:07.247Z,10
2016-08-18T13:30:06.558Z,10
2016-08-18T13:31:05.864Z,10
2016-08-18T13:32:07.321Z,10
2016-08-18T13:33:06.637Z,10
2016-08-18T13:34:06.668Z,5
2016-08-18T13:35:06.710Z,5
2016-08-18T13:36:07.472Z,5
2016-08-18T13:37:06.759Z,5
2016-08-18T13:38:07.510Z,5
2016-08-18T13:39:07.534Z,5
2016-08-18T13:40:06.858Z,5
2016-08-18T13:41:08.304Z,5
2016-08-18T13:42:07.624Z,5
2016-08-18T13:43:07.649Z,5
2016-08-18T13:44:08.397Z,10
2016-08-18T13:45:07.741Z,5
2016-08-18T13:46:07.037Z,10
2016-08-18T13:47:07.791Z,10
2016-08-18T13:48:07.800Z,10
2016-08-18T13:49:07.839Z,10
2016-08-18T13:50:07.864Z,10
2016-08-18T13:51:07.192Z,10
2016-08-18T13:52:08.639Z,5
2016-08-18T13:53:07.274Z,5
2016-08-18T13:54:08.703Z,5
2016-08-18T13:55:08.734Z,5
2016-08-18T13:56:06.639Z,5
2016-08-18T13:57:08.792Z,10
2016-08-18T13:58:09.538Z,10
2016-08-18T13:59:07.431Z,5
2016-08-18T14:00:08.877Z,5
2016-08-18T14:01:07.493Z,5
2016-08-18T14:02:07.523Z,5
2016-08-18T14:03:08.283Z,5
2016-08-18T14:04:08.293Z,5
2016-08-18T14:05:07.611Z,5
2016-08-18T14:06:06.930Z,5
2016-08-18T14:07:08.404Z,5
2016-08-18T14:08:09.144Z,5
2016-08-18T14:09:07.733Z,5
2016-08-18T14:10:09.910Z,5
2016-08-18T14:11:07.101Z,5
2016-08-18T14:12:07.841Z,5
2016-08-18T14:13:08.587Z,5
2016-08-18T14:14:07.900Z,5
2016-08-18T14:15:07.922Z,5
2016-08-18T14:16:10.086Z,5
2016-08-18T14:17:10.136Z,5
2016-08-18T14:18:08.729Z,5
2016-08-18T14:19:09.470Z,5
2016-08-18T14:20:08.813Z,5
2016-08-18T14:21:09.523Z,5
2016-08-18T14:22:08.848Z,5
2016-08-18T14:23:09.591Z,5
2016-08-18T14:24:08.907Z,5
2016-08-18T14:25:08.951Z,5
2016-08-18T14:26:08.986Z,5
2016-08-18T14:27:09.035Z,5
2016-08-18T14:28:09.741Z,5
2016-08-18T14:29:09.776Z,5
2016-08-18T14:30:08.392Z,5
2016-08-18T14:31:08.422Z,5
2016-08-18T14:32:08.443Z,5
2016-08-18T14:33:24.077Z,5
2016-08-18T14:34:09.228Z,5
2016-08-18T14:35:07.834Z,5
2016-08-18T14:36:09.986Z,5
2016-08-18T14:37:10.730Z,5
2016-08-18T14:38:08.626Z,5
2016-08-18T14:39:08.657Z,5
2016-08-18T14:40:09.400Z,5
2016-08-18T14:41:10.139Z,5
2016-08-18T14:42:08.756Z,5
2016-08-18T14:43:10.914Z,5
2016-08-18T14:44:10.231Z,5
2016-08-18T14:45:09.555Z,5
2016-08-18T14:46:10.289Z,5
2016-08-18T14:47:08.919Z,5
2016-08-18T14:48:08.935Z,5
2016-08-18T14:49:08.960Z,5
2016-08-18T14:50:11.138Z,5
2016-08-18T14:51:08.319Z,5
2016-08-18T14:52:10.487Z,5
2016-08-18T14:53:09.082Z,5
2016-08-18T14:54:09.107Z,5
2016-08-18T14:55:09.866Z,5